sensor_id;sensor_type;location;lat;lon;timestamp;P1;durP1;ratioP1;P2;durP2;ratioP2
30539;SDS011;17321;46.312;4.776;2022-10-01T00:00:02;2.55;;;2.05;;
30539;SDS011;17321;46.312;4.776;2022-10-01T00:02:28;4.13;;;1.95;;
30539;SDS011;17321;46.312;4.776;2022-10-01T00:04:54;7.28;;;1.80;;
30539;SDS011;17321;46.312;4.776;2022-10-01T00:07:21;3.95;;;2.08;;
30539;SDS011;17321;46.312;4.776;2022-10-01T00:09:47;3.88;;;1.85;;
30539;SDS011;17321;46.312;4.776;2022-10-01T00:12:13;4.35;;;1.83;;
30539;SDS011;17321;46.312;4.776;2022-10-01T00:14:42;6.15;;;2.67;;
30539;SDS011;17321;46.312;4.776;2022-10-01T00:17:08;2.13;;;1.92;;
30539;SDS011;17321;46.312;4.776;2022-10-01T00:19:34;3.50;;;2.60;;
30539;SDS011;17321;46.312;4.776;2022-10-01T00:22:00;7.13;;;2.47;;
30539;SDS011;17321;46.312;4.776;2022-10-01T00:24:27;3.85;;;2.20;;
30539;SDS011;17321;46.312;4.776;2022-10-01T00:26:53;2.70;;;2.17;;
30539;SDS011;17321;46.312;4.776;2022-10-01T00:29:19;2.58;;;2.08;;
30539;SDS011;17321;46.312;4.776;2022-10-01T00:31:45;6.60;;;2.15;;
30539;SDS011;17321;46.312;4.776;2022-10-01T00:34:11;3.03;;;1.92;;
30539;SDS011;17321;46.312;4.776;2022-10-01T00:36:39;3.60;;;1.95;;
30539;SDS011;17321;46.312;4.776;2022-10-01T00:39:06;5.22;;;1.70;;
30539;SDS011;17321;46.312;4.776;2022-10-01T00:41:32;5.65;;;2.22;;
30539;SDS011;17321;46.312;4.776;2022-10-01T00:44:44;3.80;;;2.95;;
30539;SDS011;17321;46.312;4.776;2022-10-01T00:46:45;6.25;;;2.58;;
30539;SDS011;17321;46.312;4.776;2022-10-01T00:49:17;5.32;;;2.35;;
30539;SDS011;17321;46.312;4.776;2022-10-01T00:51:53;10.20;;;2.80;;
30539;SDS011;17321;46.312;4.776;2022-10-01T00:54:21;6.88;;;2.63;;
30539;SDS011;17321;46.312;4.776;2022-10-01T00:56:49;6.13;;;3.23;;
30539;SDS011;17321;46.312;4.776;2022-10-01T00:59:17;7.07;;;3.72;;
30539;SDS011;17321;46.312;4.776;2022-10-01T01:01:43;7.45;;;4.00;;
30539;SDS011;17321;46.312;4.776;2022-10-01T01:04:09;9.13;;;3.53;;
30539;SDS011;17321;46.312;4.776;2022-10-01T01:06:45;5.55;;;3.45;;
30539;SDS011;17321;46.312;4.776;2022-10-01T01:09:14;8.27;;;3.35;;
30539;SDS011;17321;46.312;4.776;2022-10-01T01:14:53;5.53;;;2.88;;
30539;SDS011;17321;46.312;4.776;2022-10-01T01:17:00;11.98;;;3.08;;
30539;SDS011;17321;46.312;4.776;2022-10-01T01:19:37;3.53;;;2.67;;
30539;SDS011;17321;46.312;4.776;2022-10-01T01:22:07;3.72;;;2.58;;
30539;SDS011;17321;46.312;4.776;2022-10-01T01:32:41;6.60;;;3.40;;
30539;SDS011;17321;46.312;4.776;2022-10-01T01:35:10;12.90;;;3.25;;
30539;SDS011;17321;46.312;4.776;2022-10-01T01:37:42;6.65;;;3.15;;
30539;SDS011;17321;46.312;4.776;2022-10-01T01:40:09;6.65;;;3.17;;
30539;SDS011;17321;46.312;4.776;2022-10-01T01:42:38;5.72;;;2.90;;
30539;SDS011;17321;46.312;4.776;2022-10-01T01:45:06;4.85;;;3.10;;
30539;SDS011;17321;46.312;4.776;2022-10-01T01:47:34;4.70;;;3.20;;
30539;SDS011;17321;46.312;4.776;2022-10-01T01:50:02;4.57;;;2.95;;
30539;SDS011;17321;46.312;4.776;2022-10-01T01:52:30;3.55;;;3.10;;
30539;SDS011;17321;46.312;4.776;2022-10-01T01:54:57;7.50;;;2.97;;
30539;SDS011;17321;46.312;4.776;2022-10-01T01:57:23;7.82;;;3.35;;
30539;SDS011;17321;46.312;4.776;2022-10-01T01:59:50;13.13;;;3.03;;
30539;SDS011;17321;46.312;4.776;2022-10-01T02:02:19;7.05;;;2.65;;
30539;SDS011;17321;46.312;4.776;2022-10-01T02:04:50;5.40;;;2.28;;
30539;SDS011;17321;46.312;4.776;2022-10-01T02:12:43;3.35;;;2.22;;
30539;SDS011;17321;46.312;4.776;2022-10-01T02:15:19;4.10;;;2.72;;
30539;SDS011;17321;46.312;4.776;2022-10-01T02:20:27;7.22;;;2.70;;
30539;SDS011;17321;46.312;4.776;2022-10-01T02:25:54;5.32;;;2.60;;
30539;SDS011;17321;46.312;4.776;2022-10-01T02:28:21;5.68;;;2.35;;
30539;SDS011;17321;46.312;4.776;2022-10-01T02:30:48;3.35;;;2.28;;
30539;SDS011;17321;46.312;4.776;2022-10-01T02:33:15;4.22;;;2.63;;
30539;SDS011;17321;46.312;4.776;2022-10-01T02:35:43;4.25;;;2.50;;
30539;SDS011;17321;46.312;4.776;2022-10-01T02:38:10;4.90;;;2.28;;
30539;SDS011;17321;46.312;4.776;2022-10-01T02:40:39;2.23;;;1.93;;
30539;SDS011;17321;46.312;4.776;2022-10-01T02:43:11;7.63;;;2.50;;
30539;SDS011;17321;46.312;4.776;2022-10-01T02:45:39;2.60;;;1.90;;
30539;SDS011;17321;46.312;4.776;2022-10-01T02:48:07;4.45;;;2.10;;
30539;SDS011;17321;46.312;4.776;2022-10-01T02:50:47;5.70;;;2.10;;
30539;SDS011;17321;46.312;4.776;2022-10-01T02:53:26;3.08;;;2.05;;
30539;SDS011;17321;46.312;4.776;2022-10-01T02:55:53;6.00;;;2.28;;
30539;SDS011;17321;46.312;4.776;2022-10-01T02:58:20;6.00;;;2.60;;
30539;SDS011;17321;46.312;4.776;2022-10-01T03:00:46;2.63;;;2.00;;
30539;SDS011;17321;46.312;4.776;2022-10-01T03:03:12;6.70;;;2.05;;
30539;SDS011;17321;46.312;4.776;2022-10-01T03:05:38;5.97;;;2.50;;
30539;SDS011;17321;46.312;4.776;2022-10-01T03:08:04;2.65;;;1.85;;
30539;SDS011;17321;46.312;4.776;2022-10-01T03:10:31;2.05;;;1.50;;
30539;SDS011;17321;46.312;4.776;2022-10-01T03:12:57;1.85;;;1.65;;
30539;SDS011;17321;46.312;4.776;2022-10-01T03:15:26;4.85;;;2.17;;
30539;SDS011;17321;46.312;4.776;2022-10-01T03:17:52;4.93;;;2.08;;
30539;SDS011;17321;46.312;4.776;2022-10-01T03:20:19;3.15;;;2.70;;
30539;SDS011;17321;46.312;4.776;2022-10-01T03:22:45;3.58;;;2.00;;
30539;SDS011;17321;46.312;4.776;2022-10-01T03:25:15;6.68;;;1.95;;
30539;SDS011;17321;46.312;4.776;2022-10-01T03:27:41;5.07;;;2.20;;
30539;SDS011;17321;46.312;4.776;2022-10-01T03:30:08;2.88;;;1.50;;
30539;SDS011;17321;46.312;4.776;2022-10-01T03:32:34;4.75;;;2.00;;
30539;SDS011;17321;46.312;4.776;2022-10-01T03:35:01;7.75;;;2.20;;
30539;SDS011;17321;46.312;4.776;2022-10-01T03:37:27;7.00;;;2.20;;
30539;SDS011;17321;46.312;4.776;2022-10-01T03:39:53;5.55;;;1.85;;
30539;SDS011;17321;46.312;4.776;2022-10-01T03:42:19;5.40;;;2.17;;
30539;SDS011;17321;46.312;4.776;2022-10-01T03:44:45;2.58;;;1.88;;
30539;SDS011;17321;46.312;4.776;2022-10-01T03:47:12;5.07;;;2.22;;
30539;SDS011;17321;46.312;4.776;2022-10-01T03:49:38;4.25;;;2.10;;
30539;SDS011;17321;46.312;4.776;2022-10-01T03:52:04;2.58;;;1.80;;
30539;SDS011;17321;46.312;4.776;2022-10-01T03:54:30;1.98;;;1.50;;
30539;SDS011;17321;46.312;4.776;2022-10-01T03:56:57;2.47;;;1.83;;
30539;SDS011;17321;46.312;4.776;2022-10-01T03:59:23;5.57;;;1.63;;
30539;SDS011;17321;46.312;4.776;2022-10-01T04:01:51;8.75;;;2.53;;
30539;SDS011;17321;46.312;4.776;2022-10-01T04:04:17;3.38;;;1.90;;
30539;SDS011;17321;46.312;4.776;2022-10-01T04:06:43;5.40;;;1.98;;
30539;SDS011;17321;46.312;4.776;2022-10-01T04:09:09;6.28;;;1.80;;
30539;SDS011;17321;46.312;4.776;2022-10-01T04:11:36;4.15;;;2.20;;
30539;SDS011;17321;46.312;4.776;2022-10-01T04:14:03;5.55;;;2.00;;
30539;SDS011;17321;46.312;4.776;2022-10-01T04:16:29;5.45;;;2.67;;
30539;SDS011;17321;46.312;4.776;2022-10-01T04:18:58;10.65;;;2.25;;
30539;SDS011;17321;46.312;4.776;2022-10-01T04:21:24;3.20;;;2.58;;
30539;SDS011;17321;46.312;4.776;2022-10-01T04:23:51;4.25;;;2.92;;
30539;SDS011;17321;46.312;4.776;2022-10-01T04:26:17;4.32;;;2.33;;
30539;SDS011;17321;46.312;4.776;2022-10-01T04:28:43;8.00;;;2.67;;
30539;SDS011;17321;46.312;4.776;2022-10-01T04:31:11;3.28;;;2.55;;
30539;SDS011;17321;46.312;4.776;2022-10-01T04:33:49;5.22;;;2.63;;
30539;SDS011;17321;46.312;4.776;2022-10-01T04:36:16;3.13;;;2.55;;
30539;SDS011;17321;46.312;4.776;2022-10-01T04:38:42;4.95;;;2.47;;
30539;SDS011;17321;46.312;4.776;2022-10-01T04:41:08;2.58;;;2.38;;
30539;SDS011;17321;46.312;4.776;2022-10-01T04:43:35;6.65;;;2.78;;
30539;SDS011;17321;46.312;4.776;2022-10-01T04:46:01;3.47;;;2.85;;
30539;SDS011;17321;46.312;4.776;2022-10-01T04:48:27;2.83;;;2.55;;
30539;SDS011;17321;46.312;4.776;2022-10-01T04:50:53;9.50;;;3.20;;
30539;SDS011;17321;46.312;4.776;2022-10-01T04:53:19;5.85;;;3.47;;
30539;SDS011;17321;46.312;4.776;2022-10-01T04:55:45;5.57;;;3.25;;
30539;SDS011;17321;46.312;4.776;2022-10-01T04:58:11;9.30;;;3.47;;
30539;SDS011;17321;46.312;4.776;2022-10-01T05:00:37;5.15;;;3.75;;
30539;SDS011;17321;46.312;4.776;2022-10-01T05:03:03;3.92;;;3.60;;
30539;SDS011;17321;46.312;4.776;2022-10-01T05:05:30;5.63;;;3.60;;
30539;SDS011;17321;46.312;4.776;2022-10-01T05:07:57;8.45;;;3.47;;
30539;SDS011;17321;46.312;4.776;2022-10-01T05:10:23;6.22;;;3.72;;
30539;SDS011;17321;46.312;4.776;2022-10-01T05:12:49;4.28;;;3.22;;
30539;SDS011;17321;46.312;4.776;2022-10-01T05:17:45;4.28;;;3.88;;
30539;SDS011;17321;46.312;4.776;2022-10-01T05:20:16;5.60;;;3.30;;
30539;SDS011;17321;46.312;4.776;2022-10-01T05:22:43;7.28;;;2.90;;
30539;SDS011;17321;46.312;4.776;2022-10-01T05:25:10;6.80;;;3.55;;
30539;SDS011;17321;46.312;4.776;2022-10-01T05:27:36;5.00;;;3.20;;
30539;SDS011;17321;46.312;4.776;2022-10-01T05:30:04;9.10;;;3.80;;
30539;SDS011;17321;46.312;4.776;2022-10-01T05:32:30;4.45;;;3.70;;
30539;SDS011;17321;46.312;4.776;2022-10-01T05:34:57;6.53;;;3.80;;
30539;SDS011;17321;46.312;4.776;2022-10-01T05:37:23;5.07;;;3.70;;
30539;SDS011;17321;46.312;4.776;2022-10-01T05:39:49;7.70;;;3.72;;
30539;SDS011;17321;46.312;4.776;2022-10-01T05:42:15;6.35;;;4.15;;
30539;SDS011;17321;46.312;4.776;2022-10-01T05:44:41;4.38;;;3.65;;
30539;SDS011;17321;46.312;4.776;2022-10-01T05:47:11;6.30;;;3.70;;
30539;SDS011;17321;46.312;4.776;2022-10-01T05:49:40;4.82;;;3.47;;
30539;SDS011;17321;46.312;4.776;2022-10-01T05:52:08;7.78;;;4.10;;
30539;SDS011;17321;46.312;4.776;2022-10-01T05:54:34;5.43;;;3.60;;
30539;SDS011;17321;46.312;4.776;2022-10-01T05:57:00;6.05;;;4.35;;
30539;SDS011;17321;46.312;4.776;2022-10-01T05:59:27;4.95;;;3.83;;
30539;SDS011;17321;46.312;4.776;2022-10-01T06:01:53;7.07;;;3.75;;
30539;SDS011;17321;46.312;4.776;2022-10-01T06:04:19;4.88;;;3.22;;
30539;SDS011;17321;46.312;4.776;2022-10-01T06:06:45;9.82;;;3.20;;
30539;SDS011;17321;46.312;4.776;2022-10-01T06:09:11;6.95;;;3.17;;
30539;SDS011;17321;46.312;4.776;2022-10-01T06:11:37;8.63;;;3.60;;
30539;SDS011;17321;46.312;4.776;2022-10-01T06:14:04;12.30;;;3.75;;
30539;SDS011;17321;46.312;4.776;2022-10-01T06:16:30;5.05;;;3.17;;
30539;SDS011;17321;46.312;4.776;2022-10-01T06:18:56;3.92;;;3.22;;
30539;SDS011;17321;46.312;4.776;2022-10-01T06:21:23;6.57;;;3.38;;
30539;SDS011;17321;46.312;4.776;2022-10-01T06:23:50;4.70;;;3.30;;
30539;SDS011;17321;46.312;4.776;2022-10-01T06:26:16;5.80;;;3.10;;
30539;SDS011;17321;46.312;4.776;2022-10-01T06:28:43;7.30;;;3.28;;
30539;SDS011;17321;46.312;4.776;2022-10-01T06:31:09;3.55;;;2.55;;
30539;SDS011;17321;46.312;4.776;2022-10-01T06:33:35;6.38;;;3.58;;
30539;SDS011;17321;46.312;4.776;2022-10-01T06:36:02;10.75;;;3.33;;
30539;SDS011;17321;46.312;4.776;2022-10-01T06:38:29;8.85;;;2.95;;
30539;SDS011;17321;46.312;4.776;2022-10-01T06:40:56;7.63;;;3.70;;
30539;SDS011;17321;46.312;4.776;2022-10-01T06:43:23;4.40;;;3.53;;
30539;SDS011;17321;46.312;4.776;2022-10-01T06:45:49;7.38;;;3.92;;
30539;SDS011;17321;46.312;4.776;2022-10-01T06:48:16;4.28;;;3.42;;
30539;SDS011;17321;46.312;4.776;2022-10-01T06:50:44;6.50;;;3.55;;
30539;SDS011;17321;46.312;4.776;2022-10-01T06:53:11;5.93;;;3.28;;
30539;SDS011;17321;46.312;4.776;2022-10-01T06:55:37;11.48;;;4.07;;
30539;SDS011;17321;46.312;4.776;2022-10-01T06:58:09;5.43;;;3.78;;
30539;SDS011;17321;46.312;4.776;2022-10-01T07:00:37;5.80;;;3.75;;
30539;SDS011;17321;46.312;4.776;2022-10-01T07:03:07;8.23;;;3.83;;
30539;SDS011;17321;46.312;4.776;2022-10-01T07:05:35;5.80;;;3.50;;
30539;SDS011;17321;46.312;4.776;2022-10-01T07:08:01;8.95;;;4.32;;
30539;SDS011;17321;46.312;4.776;2022-10-01T07:10:28;6.20;;;4.53;;
30539;SDS011;17321;46.312;4.776;2022-10-01T07:12:54;10.23;;;3.83;;
30539;SDS011;17321;46.312;4.776;2022-10-01T07:15:21;5.20;;;3.70;;
30539;SDS011;17321;46.312;4.776;2022-10-01T07:17:48;10.00;;;5.03;;
30539;SDS011;17321;46.312;4.776;2022-10-01T07:20:15;9.43;;;4.22;;
30539;SDS011;17321;46.312;4.776;2022-10-01T07:22:45;5.88;;;4.78;;
30539;SDS011;17321;46.312;4.776;2022-10-01T07:25:12;6.97;;;4.28;;
30539;SDS011;17321;46.312;4.776;2022-10-01T07:27:38;6.35;;;4.60;;
30539;SDS011;17321;46.312;4.776;2022-10-01T07:30:05;8.70;;;4.47;;
30539;SDS011;17321;46.312;4.776;2022-10-01T07:32:31;8.05;;;6.03;;
30539;SDS011;17321;46.312;4.776;2022-10-01T07:34:59;6.72;;;4.75;;
30539;SDS011;17321;46.312;4.776;2022-10-01T07:37:25;9.27;;;4.90;;
30539;SDS011;17321;46.312;4.776;2022-10-01T07:39:52;6.25;;;5.13;;
30539;SDS011;17321;46.312;4.776;2022-10-01T07:42:18;9.73;;;5.55;;
30539;SDS011;17321;46.312;4.776;2022-10-01T07:44:45;7.20;;;5.45;;
30539;SDS011;17321;46.312;4.776;2022-10-01T07:47:11;9.48;;;5.63;;
30539;SDS011;17321;46.312;4.776;2022-10-01T07:49:39;7.55;;;5.40;;
30539;SDS011;17321;46.312;4.776;2022-10-01T07:52:05;8.60;;;4.80;;
30539;SDS011;17321;46.312;4.776;2022-10-01T07:54:31;6.22;;;4.80;;
30539;SDS011;17321;46.312;4.776;2022-10-01T07:56:57;9.38;;;5.43;;
30539;SDS011;17321;46.312;4.776;2022-10-01T07:59:24;4.72;;;4.20;;
30539;SDS011;17321;46.312;4.776;2022-10-01T08:01:52;11.13;;;6.95;;
30539;SDS011;17321;46.312;4.776;2022-10-01T08:04:19;8.05;;;5.13;;
30539;SDS011;17321;46.312;4.776;2022-10-01T08:07:04;6.15;;;4.75;;
30539;SDS011;17321;46.312;4.776;2022-10-01T08:09:30;6.63;;;5.50;;
30539;SDS011;17321;46.312;4.776;2022-10-01T08:11:56;4.68;;;4.22;;
30539;SDS011;17321;46.312;4.776;2022-10-01T08:14:22;8.25;;;5.30;;
30539;SDS011;17321;46.312;4.776;2022-10-01T08:16:50;13.98;;;6.10;;
30539;SDS011;17321;46.312;4.776;2022-10-01T08:19:16;8.70;;;4.47;;
30539;SDS011;17321;46.312;4.776;2022-10-01T08:21:42;10.98;;;5.25;;
30539;SDS011;17321;46.312;4.776;2022-10-01T08:24:08;7.95;;;5.15;;
30539;SDS011;17321;46.312;4.776;2022-10-01T08:26:34;11.18;;;5.88;;
30539;SDS011;17321;46.312;4.776;2022-10-01T08:29:00;7.90;;;5.88;;
30539;SDS011;17321;46.312;4.776;2022-10-01T08:31:27;13.30;;;6.60;;
30539;SDS011;17321;46.312;4.776;2022-10-01T08:33:53;8.88;;;6.38;;
30539;SDS011;17321;46.312;4.776;2022-10-01T08:36:19;8.77;;;4.90;;
30539;SDS011;17321;46.312;4.776;2022-10-01T08:38:46;5.75;;;4.50;;
30539;SDS011;17321;46.312;4.776;2022-10-01T08:44:08;6.47;;;4.63;;
30539;SDS011;17321;46.312;4.776;2022-10-01T08:46:38;12.95;;;5.00;;
30539;SDS011;17321;46.312;4.776;2022-10-01T08:49:19;4.97;;;4.03;;
30539;SDS011;17321;46.312;4.776;2022-10-01T08:56:46;7.28;;;4.25;;
30539;SDS011;17321;46.312;4.776;2022-10-01T09:01:41;11.02;;;5.05;;
30539;SDS011;17321;46.312;4.776;2022-10-01T09:04:07;11.10;;;5.10;;
30539;SDS011;17321;46.312;4.776;2022-10-01T09:06:35;7.93;;;3.92;;
30539;SDS011;17321;46.312;4.776;2022-10-01T09:11:51;8.00;;;5.68;;
30539;SDS011;17321;46.312;4.776;2022-10-01T09:22:38;8.82;;;5.22;;
30539;SDS011;17321;46.312;4.776;2022-10-01T09:25:13;6.38;;;4.90;;
30539;SDS011;17321;46.312;4.776;2022-10-01T09:27:41;9.20;;;5.20;;
30539;SDS011;17321;46.312;4.776;2022-10-01T09:30:12;8.93;;;5.90;;
30539;SDS011;17321;46.312;4.776;2022-10-01T09:33:00;10.50;;;5.75;;
30539;SDS011;17321;46.312;4.776;2022-10-01T09:37:59;7.45;;;5.25;;
30539;SDS011;17321;46.312;4.776;2022-10-01T09:43:13;10.27;;;4.90;;
30539;SDS011;17321;46.312;4.776;2022-10-01T09:45:44;10.80;;;6.40;;
30539;SDS011;17321;46.312;4.776;2022-10-01T09:50:57;13.05;;;6.13;;
30539;SDS011;17321;46.312;4.776;2022-10-01T09:53:29;6.73;;;5.73;;
30539;SDS011;17321;46.312;4.776;2022-10-01T09:55:59;7.72;;;6.45;;
30539;SDS011;17321;46.312;4.776;2022-10-01T09:58:26;8.27;;;7.45;;
30539;SDS011;17321;46.312;4.776;2022-10-01T10:00:53;13.13;;;7.55;;
30539;SDS011;17321;46.312;4.776;2022-10-01T10:03:24;6.65;;;6.00;;
30539;SDS011;17321;46.312;4.776;2022-10-01T10:05:52;8.55;;;5.82;;
30539;SDS011;17321;46.312;4.776;2022-10-01T10:08:28;9.95;;;6.13;;
30539;SDS011;17321;46.312;4.776;2022-10-01T10:10:56;8.52;;;6.93;;
30539;SDS011;17321;46.312;4.776;2022-10-01T10:13:31;7.72;;;5.07;;
30539;SDS011;17321;46.312;4.776;2022-10-01T10:16:00;6.03;;;4.18;;
30539;SDS011;17321;46.312;4.776;2022-10-01T10:18:34;6.07;;;4.30;;
30539;SDS011;17321;46.312;4.776;2022-10-01T10:21:06;6.88;;;5.03;;
30539;SDS011;17321;46.312;4.776;2022-10-01T10:23:45;9.57;;;5.10;;
30539;SDS011;17321;46.312;4.776;2022-10-01T10:26:14;6.68;;;5.22;;
30539;SDS011;17321;46.312;4.776;2022-10-01T10:28:43;10.38;;;5.60;;
30539;SDS011;17321;46.312;4.776;2022-10-01T10:31:14;9.25;;;5.18;;
30539;SDS011;17321;46.312;4.776;2022-10-01T10:34:24;7.18;;;4.90;;
30539;SDS011;17321;46.312;4.776;2022-10-01T10:36:34;10.43;;;5.00;;
30539;SDS011;17321;46.312;4.776;2022-10-01T10:39:02;8.07;;;4.88;;
30539;SDS011;17321;46.312;4.776;2022-10-01T10:41:29;5.40;;;4.90;;
30539;SDS011;17321;46.312;4.776;2022-10-01T10:43:59;8.40;;;5.10;;
30539;SDS011;17321;46.312;4.776;2022-10-01T10:46:36;5.28;;;4.78;;
30539;SDS011;17321;46.312;4.776;2022-10-01T10:51:46;7.90;;;4.60;;
30539;SDS011;17321;46.312;4.776;2022-10-01T10:57:33;5.38;;;4.22;;
30539;SDS011;17321;46.312;4.776;2022-10-01T10:59:40;6.07;;;4.72;;
30539;SDS011;17321;46.312;4.776;2022-10-01T11:02:06;5.28;;;4.78;;
30539;SDS011;17321;46.312;4.776;2022-10-01T11:04:42;7.72;;;4.75;;
30539;SDS011;17321;46.312;4.776;2022-10-01T11:07:09;6.97;;;4.65;;
30539;SDS011;17321;46.312;4.776;2022-10-01T11:09:43;7.80;;;5.70;;
30539;SDS011;17321;46.312;4.776;2022-10-01T11:12:16;6.18;;;5.15;;
30539;SDS011;17321;46.312;4.776;2022-10-01T11:14:52;8.30;;;5.22;;
30539;SDS011;17321;46.312;4.776;2022-10-01T11:25:07;8.32;;;4.75;;
30539;SDS011;17321;46.312;4.776;2022-10-01T11:30:17;7.43;;;6.10;;
30539;SDS011;17321;46.312;4.776;2022-10-01T11:32:55;8.95;;;6.10;;
30539;SDS011;17321;46.312;4.776;2022-10-01T11:35:31;8.65;;;6.13;;
30539;SDS011;17321;46.312;4.776;2022-10-01T11:38:06;6.40;;;5.50;;
30539;SDS011;17321;46.312;4.776;2022-10-01T11:40:40;5.65;;;5.13;;
30539;SDS011;17321;46.312;4.776;2022-10-01T11:45:53;8.98;;;4.90;;
30539;SDS011;17321;46.312;4.776;2022-10-01T11:48:28;7.95;;;6.03;;
30539;SDS011;17321;46.312;4.776;2022-10-01T11:51:03;6.00;;;5.20;;
30539;SDS011;17321;46.312;4.776;2022-10-01T11:53:36;9.25;;;5.50;;
30539;SDS011;17321;46.312;4.776;2022-10-01T11:56:09;5.72;;;5.00;;
30539;SDS011;17321;46.312;4.776;2022-10-01T12:01:33;5.80;;;5.20;;
30539;SDS011;17321;46.312;4.776;2022-10-01T12:04:03;11.40;;;6.10;;
30539;SDS011;17321;46.312;4.776;2022-10-01T12:06:50;6.75;;;4.90;;
30539;SDS011;17321;46.312;4.776;2022-10-01T12:09:20;5.47;;;4.90;;
30539;SDS011;17321;46.312;4.776;2022-10-01T12:14:21;6.90;;;6.30;;
30539;SDS011;17321;46.312;4.776;2022-10-01T12:16:53;7.72;;;5.18;;
30539;SDS011;17321;46.312;4.776;2022-10-01T12:19:28;7.07;;;5.38;;
30539;SDS011;17321;46.312;4.776;2022-10-01T12:21:58;7.63;;;5.28;;
30539;SDS011;17321;46.312;4.776;2022-10-01T12:24:32;5.25;;;4.75;;
30539;SDS011;17321;46.312;4.776;2022-10-01T12:27:06;5.28;;;4.30;;
30539;SDS011;17321;46.312;4.776;2022-10-01T12:32:14;6.32;;;4.50;;
30539;SDS011;17321;46.312;4.776;2022-10-01T12:47:43;7.00;;;4.45;;
30539;SDS011;17321;46.312;4.776;2022-10-01T13:03:30;6.93;;;5.60;;
30539;SDS011;17321;46.312;4.776;2022-10-01T13:06:07;5.65;;;4.70;;
30539;SDS011;17321;46.312;4.776;2022-10-01T13:08:43;7.57;;;5.13;;
30539;SDS011;17321;46.312;4.776;2022-10-01T13:11:25;6.45;;;4.30;;
30539;SDS011;17321;46.312;4.776;2022-10-01T13:13:54;6.45;;;5.22;;
30539;SDS011;17321;46.312;4.776;2022-10-01T13:16:28;5.63;;;4.13;;
30539;SDS011;17321;46.312;4.776;2022-10-01T13:26:44;7.35;;;5.20;;
30539;SDS011;17321;46.312;4.776;2022-10-01T13:31:57;8.13;;;5.28;;
30539;SDS011;17321;46.312;4.776;2022-10-01T13:34:44;8.75;;;5.50;;
30539;SDS011;17321;46.312;4.776;2022-10-01T13:39:39;9.48;;;6.28;;
30539;SDS011;17321;46.312;4.776;2022-10-01T13:42:21;6.30;;;5.20;;
30539;SDS011;17321;46.312;4.776;2022-10-01T13:44:54;8.55;;;6.07;;
30539;SDS011;17321;46.312;4.776;2022-10-01T13:47:20;7.85;;;6.07;;
30539;SDS011;17321;46.312;4.776;2022-10-01T13:50:16;9.43;;;6.57;;
30539;SDS011;17321;46.312;4.776;2022-10-01T13:52:33;6.20;;;5.70;;
30539;SDS011;17321;46.312;4.776;2022-10-01T13:55:00;8.20;;;5.82;;
30539;SDS011;17321;46.312;4.776;2022-10-01T13:57:36;7.95;;;6.60;;
30539;SDS011;17321;46.312;4.776;2022-10-01T14:07:51;8.95;;;6.13;;
30539;SDS011;17321;46.312;4.776;2022-10-01T14:10:20;5.90;;;5.28;;
30539;SDS011;17321;46.312;4.776;2022-10-01T14:12:47;6.35;;;4.97;;
30539;SDS011;17321;46.312;4.776;2022-10-01T14:15:43;5.78;;;5.28;;
30539;SDS011;17321;46.312;4.776;2022-10-01T14:18:32;5.05;;;4.60;;
30539;SDS011;17321;46.312;4.776;2022-10-01T14:23:31;6.72;;;4.95;;
30539;SDS011;17321;46.312;4.776;2022-10-01T14:28:46;8.03;;;4.03;;
30539;SDS011;17321;46.312;4.776;2022-10-01T14:31:22;4.00;;;3.60;;
30539;SDS011;17321;46.312;4.776;2022-10-01T14:37:04;7.22;;;3.67;;
30539;SDS011;17321;46.312;4.776;2022-10-01T14:41:39;7.20;;;4.50;;
30539;SDS011;17321;46.312;4.776;2022-10-01T14:46:51;3.90;;;3.55;;
30539;SDS011;17321;46.312;4.776;2022-10-01T14:49:22;8.55;;;4.72;;
30539;SDS011;17321;46.312;4.776;2022-10-01T14:54:40;4.43;;;4.00;;
30539;SDS011;17321;46.312;4.776;2022-10-01T14:57:08;4.25;;;3.85;;
30539;SDS011;17321;46.312;4.776;2022-10-01T14:59:36;3.70;;;3.20;;
30539;SDS011;17321;46.312;4.776;2022-10-01T15:02:10;6.60;;;3.58;;
30539;SDS011;17321;46.312;4.776;2022-10-01T15:04:46;5.80;;;3.40;;
30539;SDS011;17321;46.312;4.776;2022-10-01T15:07:14;9.35;;;3.47;;
30539;SDS011;17321;46.312;4.776;2022-10-01T15:09:41;5.63;;;3.20;;
30539;SDS011;17321;46.312;4.776;2022-10-01T15:12:08;3.83;;;3.40;;
30539;SDS011;17321;46.312;4.776;2022-10-01T15:14:34;7.10;;;3.17;;
30539;SDS011;17321;46.312;4.776;2022-10-01T15:17:05;6.15;;;3.90;;
30539;SDS011;17321;46.312;4.776;2022-10-01T15:19:32;5.72;;;3.88;;
30539;SDS011;17321;46.312;4.776;2022-10-01T15:22:00;4.03;;;3.70;;
30539;SDS011;17321;46.312;4.776;2022-10-01T15:24:38;4.47;;;3.50;;
30539;SDS011;17321;46.312;4.776;2022-10-01T15:27:05;5.07;;;3.35;;
30539;SDS011;17321;46.312;4.776;2022-10-01T15:29:33;4.20;;;3.30;;
30539;SDS011;17321;46.312;4.776;2022-10-01T15:32:00;11.95;;;3.63;;
30539;SDS011;17321;46.312;4.776;2022-10-01T15:34:28;5.47;;;3.05;;
30539;SDS011;17321;46.312;4.776;2022-10-01T15:36:54;4.95;;;3.97;;
30539;SDS011;17321;46.312;4.776;2022-10-01T15:41:49;8.07;;;4.05;;
30539;SDS011;17321;46.312;4.776;2022-10-01T15:44:52;3.97;;;3.58;;
30539;SDS011;17321;46.312;4.776;2022-10-01T15:47:26;6.28;;;3.80;;
30539;SDS011;17321;46.312;4.776;2022-10-01T15:55:11;4.35;;;3.22;;
30539;SDS011;17321;46.312;4.776;2022-10-01T15:57:39;4.88;;;3.55;;
30539;SDS011;17321;46.312;4.776;2022-10-01T16:00:14;5.80;;;3.20;;
30539;SDS011;17321;46.312;4.776;2022-10-01T16:02:42;5.70;;;2.80;;
30539;SDS011;17321;46.312;4.776;2022-10-01T16:05:13;8.75;;;3.65;;
30539;SDS011;17321;46.312;4.776;2022-10-01T16:07:39;9.07;;;4.07;;
30539;SDS011;17321;46.312;4.776;2022-10-01T16:10:13;4.13;;;3.50;;
30539;SDS011;17321;46.312;4.776;2022-10-01T16:12:39;12.43;;;3.90;;
30539;SDS011;17321;46.312;4.776;2022-10-01T16:15:21;7.22;;;3.90;;
30539;SDS011;17321;46.312;4.776;2022-10-01T16:18:18;4.63;;;3.30;;
30539;SDS011;17321;46.312;4.776;2022-10-01T16:25:48;4.80;;;3.72;;
30539;SDS011;17321;46.312;4.776;2022-10-01T16:28:47;4.22;;;3.78;;
30539;SDS011;17321;46.312;4.776;2022-10-01T16:31:07;5.15;;;3.53;;
30539;SDS011;17321;46.312;4.776;2022-10-01T16:33:33;6.93;;;4.10;;
30539;SDS011;17321;46.312;4.776;2022-10-01T16:36:09;7.05;;;3.70;;
30539;SDS011;17321;46.312;4.776;2022-10-01T16:38:36;3.88;;;3.47;;
30539;SDS011;17321;46.312;4.776;2022-10-01T16:41:02;6.32;;;3.70;;
30539;SDS011;17321;46.312;4.776;2022-10-01T16:43:29;10.50;;;5.63;;
30539;SDS011;17321;46.312;4.776;2022-10-01T16:45:55;7.50;;;5.05;;
30539;SDS011;17321;46.312;4.776;2022-10-01T16:48:23;9.73;;;5.53;;
30539;SDS011;17321;46.312;4.776;2022-10-01T16:50:49;9.07;;;3.95;;
30539;SDS011;17321;46.312;4.776;2022-10-01T16:53:22;6.22;;;4.18;;
30539;SDS011;17321;46.312;4.776;2022-10-01T16:55:49;6.93;;;4.47;;
30539;SDS011;17321;46.312;4.776;2022-10-01T16:58:15;6.70;;;5.30;;
30539;SDS011;17321;46.312;4.776;2022-10-01T17:00:41;8.88;;;5.25;;
30539;SDS011;17321;46.312;4.776;2022-10-01T17:03:15;7.97;;;4.28;;
30539;SDS011;17321;46.312;4.776;2022-10-01T17:05:42;8.40;;;4.78;;
30539;SDS011;17321;46.312;4.776;2022-10-01T17:08:09;5.78;;;3.75;;
30539;SDS011;17321;46.312;4.776;2022-10-01T17:10:39;5.35;;;4.13;;
30539;SDS011;17321;46.312;4.776;2022-10-01T17:13:06;8.15;;;5.60;;
30539;SDS011;17321;46.312;4.776;2022-10-01T17:15:32;7.53;;;6.18;;
30539;SDS011;17321;46.312;4.776;2022-10-01T17:17:58;13.18;;;6.63;;
30539;SDS011;17321;46.312;4.776;2022-10-01T17:20:25;7.18;;;5.25;;
30539;SDS011;17321;46.312;4.776;2022-10-01T17:22:52;9.38;;;4.68;;
30539;SDS011;17321;46.312;4.776;2022-10-01T17:25:19;7.40;;;4.35;;
30539;SDS011;17321;46.312;4.776;2022-10-01T17:27:46;4.55;;;3.72;;
30539;SDS011;17321;46.312;4.776;2022-10-01T17:30:12;8.40;;;4.00;;
30539;SDS011;17321;46.312;4.776;2022-10-01T17:32:38;5.35;;;3.90;;